sensor_id;sensor_type;location;lat;lon;timestamp;P1;durP1;ratioP1;P2;durP2;ratioP2
73331;SDS011;61560;33.718;73.040;2023-04-09T00:01:01;11.35;;;5.20;;
73331;SDS011;61560;33.718;73.040;2023-04-09T00:03:35;8.25;;;4.55;;
73331;SDS011;61560;33.718;73.040;2023-04-09T00:06:03;9.85;;;4.70;;
73331;SDS011;61560;33.718;73.040;2023-04-09T00:08:31;8.23;;;4.45;;
73331;SDS011;61560;33.718;73.040;2023-04-09T00:10:58;10.15;;;4.65;;
73331;SDS011;61560;33.718;73.040;2023-04-09T00:13:26;10.55;;;4.53;;
73331;SDS011;61560;33.718;73.040;2023-04-09T00:15:53;7.95;;;4.22;;
73331;SDS011;61560;33.718;73.040;2023-04-09T00:18:21;12.82;;;4.47;;
73331;SDS011;61560;33.718;73.040;2023-04-09T00:20:48;13.57;;;4.68;;
73331;SDS011;61560;33.718;73.040;2023-04-09T00:23:15;11.82;;;4.72;;
73331;SDS011;61560;33.718;73.040;2023-04-09T00:25:42;9.32;;;4.28;;
73331;SDS011;61560;33.718;73.040;2023-04-09T00:28:09;11.07;;;4.72;;
73331;SDS011;61560;33.718;73.040;2023-04-09T00:30:36;8.52;;;4.35;;
73331;SDS011;61560;33.718;73.040;2023-04-09T00:33:24;7.90;;;4.22;;
73331;SDS011;61560;33.718;73.040;2023-04-09T00:36:32;10.20;;;4.00;;
73331;SDS011;61560;33.718;73.040;2023-04-09T00:39:00;8.05;;;4.18;;
73331;SDS011;61560;33.718;73.040;2023-04-09T00:41:27;11.18;;;4.15;;
73331;SDS011;61560;33.718;73.040;2023-04-09T00:43:57;10.18;;;3.90;;
73331;SDS011;61560;33.718;73.040;2023-04-09T00:46:24;10.23;;;3.80;;
73331;SDS011;61560;33.718;73.040;2023-04-09T00:48:51;9.95;;;4.03;;
73331;SDS011;61560;33.718;73.040;2023-04-09T00:51:19;7.60;;;3.70;;
73331;SDS011;61560;33.718;73.040;2023-04-09T00:53:46;9.68;;;4.30;;
73331;SDS011;61560;33.718;73.040;2023-04-09T00:56:15;9.20;;;4.30;;
73331;SDS011;61560;33.718;73.040;2023-04-09T00:58:44;8.40;;;4.15;;
73331;SDS011;61560;33.718;73.040;2023-04-09T01:01:11;8.52;;;4.20;;
73331;SDS011;61560;33.718;73.040;2023-04-09T01:03:38;6.43;;;3.33;;
73331;SDS011;61560;33.718;73.040;2023-04-09T01:06:21;6.95;;;3.63;;
73331;SDS011;61560;33.718;73.040;2023-04-09T01:09:13;7.05;;;3.53;;
73331;SDS011;61560;33.718;73.040;2023-04-09T01:12:17;8.02;;;4.10;;
73331;SDS011;61560;33.718;73.040;2023-04-09T01:17:36;11.20;;;4.00;;
73331;SDS011;61560;33.718;73.040;2023-04-09T01:20:32;11.77;;;3.83;;
73331;SDS011;61560;33.718;73.040;2023-04-09T01:28:53;7.55;;;3.70;;
73331;SDS011;61560;33.718;73.040;2023-04-09T01:31:33;9.98;;;4.03;;
73331;SDS011;61560;33.718;73.040;2023-04-09T01:34:02;12.20;;;4.28;;
73331;SDS011;61560;33.718;73.040;2023-04-09T01:36:31;13.05;;;4.22;;
73331;SDS011;61560;33.718;73.040;2023-04-09T01:38:59;8.18;;;4.18;;
73331;SDS011;61560;33.718;73.040;2023-04-09T01:41:27;7.13;;;3.78;;
73331;SDS011;61560;33.718;73.040;2023-04-09T01:43:57;9.02;;;4.15;;
73331;SDS011;61560;33.718;73.040;2023-04-09T01:46:28;15.50;;;4.45;;
73331;SDS011;61560;33.718;73.040;2023-04-09T01:48:56;9.40;;;4.05;;
73331;SDS011;61560;33.718;73.040;2023-04-09T01:51:24;6.65;;;3.97;;
73331;SDS011;61560;33.718;73.040;2023-04-09T01:53:52;8.75;;;4.30;;
73331;SDS011;61560;33.718;73.040;2023-04-09T01:56:19;7.85;;;4.47;;
73331;SDS011;61560;33.718;73.040;2023-04-09T01:58:49;10.80;;;5.00;;
73331;SDS011;61560;33.718;73.040;2023-04-09T02:01:29;7.05;;;4.85;;
73331;SDS011;61560;33.718;73.040;2023-04-09T02:04:04;10.10;;;4.90;;
73331;SDS011;61560;33.718;73.040;2023-04-09T02:09:13;11.50;;;4.77;;
73331;SDS011;61560;33.718;73.040;2023-04-09T02:11:45;10.75;;;5.65;;
73331;SDS011;61560;33.718;73.040;2023-04-09T02:14:13;11.52;;;5.32;;
73331;SDS011;61560;33.718;73.040;2023-04-09T02:16:42;19.42;;;6.10;;
73331;SDS011;61560;33.718;73.040;2023-04-09T02:19:09;17.00;;;5.90;;
73331;SDS011;61560;33.718;73.040;2023-04-09T02:21:36;14.93;;;7.05;;
73331;SDS011;61560;33.718;73.040;2023-04-09T02:24:03;17.67;;;5.93;;
73331;SDS011;61560;33.718;73.040;2023-04-09T02:26:30;12.45;;;5.78;;
73331;SDS011;61560;33.718;73.040;2023-04-09T02:28:57;14.02;;;5.85;;
73331;SDS011;61560;33.718;73.040;2023-04-09T02:31:25;19.73;;;5.95;;
73331;SDS011;61560;33.718;73.040;2023-04-09T02:33:51;12.57;;;6.00;;
73331;SDS011;61560;33.718;73.040;2023-04-09T02:36:19;13.60;;;5.53;;
73331;SDS011;61560;33.718;73.040;2023-04-09T02:38:46;10.88;;;5.18;;
73331;SDS011;61560;33.718;73.040;2023-04-09T02:41:15;10.80;;;5.40;;
73331;SDS011;61560;33.718;73.040;2023-04-09T02:43:42;12.38;;;4.90;;
73331;SDS011;61560;33.718;73.040;2023-04-09T02:46:10;12.35;;;5.57;;
73331;SDS011;61560;33.718;73.040;2023-04-09T02:48:37;18.42;;;5.20;;
73331;SDS011;61560;33.718;73.040;2023-04-09T02:51:04;9.40;;;5.43;;
73331;SDS011;61560;33.718;73.040;2023-04-09T02:53:33;12.02;;;5.38;;
73331;SDS011;61560;33.718;73.040;2023-04-09T02:56:00;9.30;;;5.40;;
73331;SDS011;61560;33.718;73.040;2023-04-09T02:58:27;9.40;;;4.68;;
73331;SDS011;61560;33.718;73.040;2023-04-09T03:00:55;9.90;;;5.38;;
73331;SDS011;61560;33.718;73.040;2023-04-09T03:03:22;9.60;;;4.95;;
73331;SDS011;61560;33.718;73.040;2023-04-09T03:05:50;11.82;;;5.50;;
73331;SDS011;61560;33.718;73.040;2023-04-09T03:08:16;11.88;;;5.03;;
73331;SDS011;61560;33.718;73.040;2023-04-09T03:10:44;9.63;;;5.60;;
73331;SDS011;61560;33.718;73.040;2023-04-09T03:13:11;13.02;;;5.60;;
73331;SDS011;61560;33.718;73.040;2023-04-09T03:15:38;10.77;;;5.43;;
73331;SDS011;61560;33.718;73.040;2023-04-09T03:18:06;11.82;;;6.05;;
73331;SDS011;61560;33.718;73.040;2023-04-09T03:20:36;16.75;;;6.30;;
73331;SDS011;61560;33.718;73.040;2023-04-09T03:23:07;14.35;;;6.07;;
73331;SDS011;61560;33.718;73.040;2023-04-09T03:28:15;12.98;;;6.30;;
73331;SDS011;61560;33.718;73.040;2023-04-09T03:30:45;11.25;;;6.32;;
73331;SDS011;61560;33.718;73.040;2023-04-09T03:33:13;11.18;;;6.03;;
73331;SDS011;61560;33.718;73.040;2023-04-09T03:35:58;13.50;;;6.65;;
73331;SDS011;61560;33.718;73.040;2023-04-09T03:38:54;20.23;;;7.60;;
73331;SDS011;61560;33.718;73.040;2023-04-09T03:41:30;12.95;;;6.80;;
73331;SDS011;61560;33.718;73.040;2023-04-09T03:44:01;12.70;;;7.35;;
73331;SDS011;61560;33.718;73.040;2023-04-09T03:46:35;12.48;;;7.15;;
73331;SDS011;61560;33.718;73.040;2023-04-09T03:49:03;14.32;;;7.10;;
73331;SDS011;61560;33.718;73.040;2023-04-09T03:51:40;17.25;;;7.00;;
73331;SDS011;61560;33.718;73.040;2023-04-09T03:54:08;15.00;;;7.55;;
73331;SDS011;61560;33.718;73.040;2023-04-09T03:56:36;14.82;;;7.30;;
73331;SDS011;61560;33.718;73.040;2023-04-09T03:59:07;11.75;;;7.20;;
73331;SDS011;61560;33.718;73.040;2023-04-09T04:01:43;15.38;;;7.60;;
73331;SDS011;61560;33.718;73.040;2023-04-09T04:04:10;10.07;;;6.80;;
73331;SDS011;61560;33.718;73.040;2023-04-09T04:06:51;10.40;;;6.23;;
73331;SDS011;61560;33.718;73.040;2023-04-09T04:09:24;20.20;;;8.57;;
73331;SDS011;61560;33.718;73.040;2023-04-09T04:11:55;14.23;;;8.18;;
73331;SDS011;61560;33.718;73.040;2023-04-09T04:14:35;14.52;;;8.13;;
73331;SDS011;61560;33.718;73.040;2023-04-09T04:17:13;15.77;;;8.57;;
73331;SDS011;61560;33.718;73.040;2023-04-09T04:19:40;16.08;;;7.90;;
73331;SDS011;61560;33.718;73.040;2023-04-09T04:22:07;12.60;;;7.57;;
73331;SDS011;61560;33.718;73.040;2023-04-09T04:24:39;11.07;;;7.75;;
73331;SDS011;61560;33.718;73.040;2023-04-09T04:27:07;10.52;;;7.63;;
73331;SDS011;61560;33.718;73.040;2023-04-09T04:29:34;16.95;;;7.10;;
73331;SDS011;61560;33.718;73.040;2023-04-09T04:32:12;13.50;;;7.07;;
73331;SDS011;61560;33.718;73.040;2023-04-09T04:34:39;12.52;;;7.40;;
73331;SDS011;61560;33.718;73.040;2023-04-09T04:37:18;11.10;;;7.63;;
73331;SDS011;61560;33.718;73.040;2023-04-09T04:39:47;9.32;;;7.18;;
73331;SDS011;61560;33.718;73.040;2023-04-09T04:42:16;12.60;;;7.25;;
73331;SDS011;61560;33.718;73.040;2023-04-09T04:44:44;14.15;;;7.15;;
73331;SDS011;61560;33.718;73.040;2023-04-09T04:47:34;11.30;;;7.70;;
73331;SDS011;61560;33.718;73.040;2023-04-09T04:50:02;12.70;;;7.20;;
73331;SDS011;61560;33.718;73.040;2023-04-09T04:52:38;8.80;;;6.78;;
73331;SDS011;61560;33.718;73.040;2023-04-09T04:55:06;9.35;;;7.32;;
73331;SDS011;61560;33.718;73.040;2023-04-09T04:57:33;12.77;;;7.40;;
73331;SDS011;61560;33.718;73.040;2023-04-09T05:00:02;12.40;;;7.30;;
73331;SDS011;61560;33.718;73.040;2023-04-09T05:02:29;13.05;;;7.55;;
73331;SDS011;61560;33.718;73.040;2023-04-09T05:05:29;8.98;;;6.55;;
73331;SDS011;61560;33.718;73.040;2023-04-09T05:07:56;8.90;;;6.47;;
73331;SDS011;61560;33.718;73.040;2023-04-09T05:10:23;12.10;;;6.47;;
73331;SDS011;61560;33.718;73.040;2023-04-09T05:12:56;11.75;;;7.00;;
73331;SDS011;61560;33.718;73.040;2023-04-09T05:15:36;12.07;;;6.97;;
73331;SDS011;61560;33.718;73.040;2023-04-09T05:18:07;10.77;;;6.28;;
73331;SDS011;61560;33.718;73.040;2023-04-09T05:20:35;11.18;;;6.53;;
73331;SDS011;61560;33.718;73.040;2023-04-09T05:23:07;11.38;;;7.35;;
73331;SDS011;61560;33.718;73.040;2023-04-09T05:25:41;11.18;;;7.07;;
73331;SDS011;61560;33.718;73.040;2023-04-09T05:28:28;13.95;;;7.95;;
73331;SDS011;61560;33.718;73.040;2023-04-09T05:31:05;12.63;;;7.50;;
73331;SDS011;61560;33.718;73.040;2023-04-09T05:33:43;9.32;;;7.70;;
73331;SDS011;61560;33.718;73.040;2023-04-09T05:36:17;11.57;;;7.43;;
73331;SDS011;61560;33.718;73.040;2023-04-09T05:38:46;13.48;;;8.43;;
73331;SDS011;61560;33.718;73.040;2023-04-09T05:41:13;9.80;;;7.05;;
73331;SDS011;61560;33.718;73.040;2023-04-09T05:44:02;10.52;;;6.78;;
73331;SDS011;61560;33.718;73.040;2023-04-09T05:46:31;11.20;;;7.40;;
73331;SDS011;61560;33.718;73.040;2023-04-09T05:48:59;11.50;;;7.10;;
73331;SDS011;61560;33.718;73.040;2023-04-09T05:51:29;11.68;;;7.00;;
73331;SDS011;61560;33.718;73.040;2023-04-09T05:53:56;11.88;;;7.80;;
73331;SDS011;61560;33.718;73.040;2023-04-09T05:56:32;13.95;;;8.32;;
73331;SDS011;61560;33.718;73.040;2023-04-09T05:58:59;13.85;;;8.30;;
73331;SDS011;61560;33.718;73.040;2023-04-09T06:01:26;11.10;;;7.63;;
73331;SDS011;61560;33.718;73.040;2023-04-09T06:03:56;12.93;;;8.25;;
73331;SDS011;61560;33.718;73.040;2023-04-09T06:06:23;15.63;;;7.88;;
73331;SDS011;61560;33.718;73.040;2023-04-09T06:08:50;12.48;;;8.27;;
73331;SDS011;61560;33.718;73.040;2023-04-09T06:11:17;14.88;;;7.88;;
73331;SDS011;61560;33.718;73.040;2023-04-09T06:13:44;14.30;;;7.82;;
73331;SDS011;61560;33.718;73.040;2023-04-09T06:16:11;13.20;;;7.43;;
73331;SDS011;61560;33.718;73.040;2023-04-09T06:18:39;13.45;;;7.70;;
73331;SDS011;61560;33.718;73.040;2023-04-09T06:21:07;14.18;;;7.15;;
73331;SDS011;61560;33.718;73.040;2023-04-09T06:23:35;12.40;;;7.15;;
73331;SDS011;61560;33.718;73.040;2023-04-09T06:26:02;13.23;;;8.40;;
73331;SDS011;61560;33.718;73.040;2023-04-09T06:28:29;14.13;;;7.32;;
73331;SDS011;61560;33.718;73.040;2023-04-09T06:30:57;15.95;;;7.20;;
73331;SDS011;61560;33.718;73.040;2023-04-09T06:33:24;12.18;;;7.80;;
73331;SDS011;61560;33.718;73.040;2023-04-09T06:35:51;23.50;;;8.60;;
73331;SDS011;61560;33.718;73.040;2023-04-09T06:38:18;12.52;;;8.40;;
73331;SDS011;61560;33.718;73.040;2023-04-09T06:40:45;14.68;;;8.45;;
73331;SDS011;61560;33.718;73.040;2023-04-09T06:43:28;16.88;;;9.25;;
73331;SDS011;61560;33.718;73.040;2023-04-09T06:45:57;17.90;;;9.05;;
73331;SDS011;61560;33.718;73.040;2023-04-09T06:48:23;12.43;;;8.82;;
73331;SDS011;61560;33.718;73.040;2023-04-09T06:50:51;21.75;;;10.13;;
73331;SDS011;61560;33.718;73.040;2023-04-09T06:53:20;18.40;;;9.90;;
73331;SDS011;61560;33.718;73.040;2023-04-09T06:55:49;22.50;;;9.60;;
73331;SDS011;61560;33.718;73.040;2023-04-09T06:58:16;24.73;;;10.35;;
73331;SDS011;61560;33.718;73.040;2023-04-09T07:00:43;18.02;;;9.43;;
73331;SDS011;61560;33.718;73.040;2023-04-09T07:03:10;18.95;;;9.02;;
73331;SDS011;61560;33.718;73.040;2023-04-09T07:05:37;19.02;;;9.27;;
73331;SDS011;61560;33.718;73.040;2023-04-09T07:08:05;19.33;;;10.07;;
73331;SDS011;61560;33.718;73.040;2023-04-09T07:10:32;17.38;;;9.30;;
73331;SDS011;61560;33.718;73.040;2023-04-09T07:12:59;16.15;;;9.25;;
73331;SDS011;61560;33.718;73.040;2023-04-09T07:15:26;16.40;;;9.02;;
73331;SDS011;61560;33.718;73.040;2023-04-09T07:17:53;18.15;;;8.90;;
73331;SDS011;61560;33.718;73.040;2023-04-09T07:20:23;16.27;;;8.85;;
73331;SDS011;61560;33.718;73.040;2023-04-09T07:22:50;17.95;;;9.02;;
73331;SDS011;61560;33.718;73.040;2023-04-09T07:25:18;18.45;;;9.25;;
73331;SDS011;61560;33.718;73.040;2023-04-09T07:27:46;18.13;;;10.10;;
73331;SDS011;61560;33.718;73.040;2023-04-09T07:30:13;20.27;;;9.80;;
73331;SDS011;61560;33.718;73.040;2023-04-09T07:32:40;18.50;;;8.82;;
73331;SDS011;61560;33.718;73.040;2023-04-09T07:35:07;16.48;;;9.43;;
73331;SDS011;61560;33.718;73.040;2023-04-09T07:37:34;22.67;;;9.35;;
73331;SDS011;61560;33.718;73.040;2023-04-09T07:40:02;17.23;;;8.57;;
73331;SDS011;61560;33.718;73.040;2023-04-09T07:42:35;24.42;;;9.75;;
73331;SDS011;61560;33.718;73.040;2023-04-09T07:45:05;16.75;;;9.80;;
73331;SDS011;61560;33.718;73.040;2023-04-09T07:47:35;20.88;;;10.75;;
73331;SDS011;61560;33.718;73.040;2023-04-09T07:50:03;14.88;;;9.05;;
73331;SDS011;61560;33.718;73.040;2023-04-09T07:52:31;17.88;;;9.50;;
73331;SDS011;61560;33.718;73.040;2023-04-09T07:54:58;18.70;;;10.55;;
73331;SDS011;61560;33.718;73.040;2023-04-09T07:57:26;18.38;;;9.98;;
73331;SDS011;61560;33.718;73.040;2023-04-09T08:00:02;17.02;;;9.98;;
73331;SDS011;61560;33.718;73.040;2023-04-09T08:02:38;17.13;;;9.50;;
73331;SDS011;61560;33.718;73.040;2023-04-09T08:05:06;15.77;;;9.35;;
73331;SDS011;61560;33.718;73.040;2023-04-09T08:07:33;19.08;;;10.20;;
73331;SDS011;61560;33.718;73.040;2023-04-09T08:10:04;17.90;;;9.25;;
73331;SDS011;61560;33.718;73.040;2023-04-09T08:12:32;18.65;;;8.40;;
73331;SDS011;61560;33.718;73.040;2023-04-09T08:14:59;15.98;;;7.30;;
73331;SDS011;61560;33.718;73.040;2023-04-09T08:17:28;18.10;;;7.32;;
73331;SDS011;61560;33.718;73.040;2023-04-09T08:20:02;14.65;;;6.72;;
73331;SDS011;61560;33.718;73.040;2023-04-09T08:22:30;18.67;;;6.88;;
73331;SDS011;61560;33.718;73.040;2023-04-09T08:25:17;17.98;;;5.82;;
73331;SDS011;61560;33.718;73.040;2023-04-09T08:28:07;14.25;;;6.22;;
73331;SDS011;61560;33.718;73.040;2023-04-09T08:30:39;8.38;;;5.78;;
73331;SDS011;61560;33.718;73.040;2023-04-09T08:33:06;11.88;;;5.30;;
73331;SDS011;61560;33.718;73.040;2023-04-09T08:35:33;10.45;;;5.20;;
73331;SDS011;61560;33.718;73.040;2023-04-09T08:37:59;6.82;;;4.80;;
73331;SDS011;61560;33.718;73.040;2023-04-09T08:40:27;8.55;;;4.85;;
73331;SDS011;61560;33.718;73.040;2023-04-09T08:43:15;14.95;;;4.75;;
73331;SDS011;61560;33.718;73.040;2023-04-09T08:46:22;7.72;;;4.80;;
73331;SDS011;61560;33.718;73.040;2023-04-09T08:48:54;8.43;;;4.43;;
73331;SDS011;61560;33.718;73.040;2023-04-09T08:51:22;11.88;;;4.43;;
73331;SDS011;61560;33.718;73.040;2023-04-09T08:54:02;10.20;;;4.20;;
73331;SDS011;61560;33.718;73.040;2023-04-09T08:56:46;6.53;;;3.92;;
73331;SDS011;61560;33.718;73.040;2023-04-09T08:59:14;5.47;;;3.92;;
73331;SDS011;61560;33.718;73.040;2023-04-09T09:01:45;6.07;;;3.45;;
73331;SDS011;61560;33.718;73.040;2023-04-09T09:04:17;5.50;;;3.35;;
73331;SDS011;61560;33.718;73.040;2023-04-09T09:06:44;5.20;;;3.20;;
73331;SDS011;61560;33.718;73.040;2023-04-09T09:09:13;6.03;;;3.30;;
73331;SDS011;61560;33.718;73.040;2023-04-09T09:11:41;6.03;;;3.13;;
73331;SDS011;61560;33.718;73.040;2023-04-09T09:14:13;3.20;;;2.58;;
73331;SDS011;61560;33.718;73.040;2023-04-09T09:21:59;6.72;;;2.95;;
73331;SDS011;61560;33.718;73.040;2023-04-09T09:24:28;2.88;;;2.50;;
73331;SDS011;61560;33.718;73.040;2023-04-09T09:26:57;10.45;;;2.75;;
73331;SDS011;61560;33.718;73.040;2023-04-09T09:29:24;4.28;;;2.40;;
73331;SDS011;61560;33.718;73.040;2023-04-09T09:31:53;3.58;;;2.30;;
73331;SDS011;61560;33.718;73.040;2023-04-09T09:34:21;4.15;;;2.50;;
73331;SDS011;61560;33.718;73.040;2023-04-09T09:36:50;4.97;;;2.42;;
73331;SDS011;61560;33.718;73.040;2023-04-09T09:39:18;4.28;;;2.38;;
73331;SDS011;61560;33.718;73.040;2023-04-09T09:41:46;6.05;;;2.55;;
73331;SDS011;61560;33.718;73.040;2023-04-09T09:44:31;4.03;;;2.65;;
73331;SDS011;61560;33.718;73.040;2023-04-09T09:46:58;4.38;;;2.45;;
73331;SDS011;61560;33.718;73.040;2023-04-09T09:49:28;4.63;;;2.40;;
73331;SDS011;61560;33.718;73.040;2023-04-09T09:51:56;7.10;;;2.50;;
73331;SDS011;61560;33.718;73.040;2023-04-09T09:54:28;5.72;;;2.70;;
73331;SDS011;61560;33.718;73.040;2023-04-09T09:57:04;5.10;;;2.30;;
73331;SDS011;61560;33.718;73.040;2023-04-09T09:59:40;4.57;;;2.57;;
73331;SDS011;61560;33.718;73.040;2023-04-09T10:02:15;5.13;;;2.70;;
73331;SDS011;61560;33.718;73.040;2023-04-09T10:04:45;5.10;;;2.60;;
73331;SDS011;61560;33.718;73.040;2023-04-09T10:07:15;7.38;;;2.72;;
73331;SDS011;61560;33.718;73.040;2023-04-09T10:09:48;6.10;;;2.83;;
73331;SDS011;61560;33.718;73.040;2023-04-09T10:12:16;3.80;;;2.20;;
73331;SDS011;61560;33.718;73.040;2023-04-09T10:17:18;3.60;;;2.00;;
73331;SDS011;61560;33.718;73.040;2023-04-09T10:19:48;3.60;;;2.38;;
73331;SDS011;61560;33.718;73.040;2023-04-09T10:22:25;4.00;;;2.50;;
73331;SDS011;61560;33.718;73.040;2023-04-09T10:24:57;4.43;;;2.80;;
73331;SDS011;61560;33.718;73.040;2023-04-09T10:27:24;6.63;;;3.15;;
73331;SDS011;61560;33.718;73.040;2023-04-09T10:29:53;3.03;;;2.30;;
73331;SDS011;61560;33.718;73.040;2023-04-09T10:32:21;5.20;;;2.50;;
73331;SDS011;61560;33.718;73.040;2023-04-09T10:34:51;3.58;;;2.20;;
73331;SDS011;61560;33.718;73.040;2023-04-09T10:37:25;4.70;;;2.17;;
73331;SDS011;61560;33.718;73.040;2023-04-09T10:39:53;5.18;;;2.50;;
73331;SDS011;61560;33.718;73.040;2023-04-09T10:42:28;2.88;;;2.25;;
73331;SDS011;61560;33.718;73.040;2023-04-09T10:45:05;3.33;;;2.22;;
73331;SDS011;61560;33.718;73.040;2023-04-09T10:47:35;4.28;;;2.20;;
73331;SDS011;61560;33.718;73.040;2023-04-09T10:52:46;6.50;;;3.00;;
73331;SDS011;61560;33.718;73.040;2023-04-09T10:55:32;3.83;;;2.78;;
73331;SDS011;61560;33.718;73.040;2023-04-09T10:58:04;6.13;;;3.28;;
73331;SDS011;61560;33.718;73.040;2023-04-09T11:00:39;3.58;;;2.92;;
73331;SDS011;61560;33.718;73.040;2023-04-09T11:03:19;5.10;;;2.97;;
73331;SDS011;61560;33.718;73.040;2023-04-09T11:08:31;7.90;;;3.40;;
73331;SDS011;61560;33.718;73.040;2023-04-09T11:10:59;8.07;;;4.35;;
73331;SDS011;61560;33.718;73.040;2023-04-09T11:13:27;4.50;;;3.42;;
73331;SDS011;61560;33.718;73.040;2023-04-09T11:15:56;8.18;;;4.65;;
73331;SDS011;61560;33.718;73.040;2023-04-09T11:18:25;9.15;;;4.75;;
73331;SDS011;61560;33.718;73.040;2023-04-09T11:20:54;5.45;;;3.60;;
73331;SDS011;61560;33.718;73.040;2023-04-09T11:23:25;6.70;;;4.22;;
73331;SDS011;61560;33.718;73.040;2023-04-09T11:25:53;4.40;;;3.85;;
73331;SDS011;61560;33.718;73.040;2023-04-09T11:28:21;4.63;;;3.63;;
73331;SDS011;61560;33.718;73.040;2023-04-09T11:30:49;6.45;;;3.40;;
73331;SDS011;61560;33.718;73.040;2023-04-09T11:33:17;4.93;;;3.13;;
73331;SDS011;61560;33.718;73.040;2023-04-09T11:35:45;5.88;;;3.38;;
73331;SDS011;61560;33.718;73.040;2023-04-09T11:38:13;5.82;;;3.08;;
73331;SDS011;61560;33.718;73.040;2023-04-09T11:40:40;7.45;;;3.20;;
73331;SDS011;61560;33.718;73.040;2023-04-09T11:43:13;6.85;;;3.58;;
73331;SDS011;61560;33.718;73.040;2023-04-09T11:45:41;7.47;;;3.38;;
73331;SDS011;61560;33.718;73.040;2023-04-09T11:48:09;3.90;;;2.80;;
73331;SDS011;61560;33.718;73.040;2023-04-09T11:50:37;4.70;;;2.88;;
73331;SDS011;61560;33.718;73.040;2023-04-09T11:53:17;5.03;;;3.60;;
73331;SDS011;61560;33.718;73.040;2023-04-09T11:55:49;5.38;;;2.70;;
73331;SDS011;61560;33.718;73.040;2023-04-09T11:58:21;8.73;;;3.58;;
73331;SDS011;61560;33.718;73.040;2023-04-09T12:01:07;6.55;;;3.50;;
73331;SDS011;61560;33.718;73.040;2023-04-09T12:03:34;6.97;;;3.10;;
73331;SDS011;61560;33.718;73.040;2023-04-09T12:06:02;8.25;;;3.60;;
73331;SDS011;61560;33.718;73.040;2023-04-09T12:08:34;5.45;;;3.10;;
73331;SDS011;61560;33.718;73.040;2023-04-09T12:11:14;7.60;;;3.40;;
73331;SDS011;61560;33.718;73.040;2023-04-09T12:13:41;3.38;;;2.88;;
73331;SDS011;61560;33.718;73.040;2023-04-09T12:16:10;8.38;;;4.00;;
73331;SDS011;61560;33.718;73.040;2023-04-09T12:18:40;7.83;;;3.57;;
73331;SDS011;61560;33.718;73.040;2023-04-09T12:21:07;7.95;;;3.33;;
73331;SDS011;61560;33.718;73.040;2023-04-09T12:23:34;8.13;;;3.55;;
73331;SDS011;61560;33.718;73.040;2023-04-09T12:26:01;9.57;;;3.55;;
73331;SDS011;61560;33.718;73.040;2023-04-09T12:28:28;6.15;;;3.60;;
73331;SDS011;61560;33.718;73.040;2023-04-09T12:30:55;8.88;;;3.90;;
73331;SDS011;61560;33.718;73.040;2023-04-09T12:33:25;8.15;;;4.10;;
73331;SDS011;61560;33.718;73.040;2023-04-09T12:35:53;8.18;;;4.28;;
73331;SDS011;61560;33.718;73.040;2023-04-09T12:38:21;10.30;;;3.85;;
73331;SDS011;61560;33.718;73.040;2023-04-09T12:40:48;6.75;;;3.80;;
73331;SDS011;61560;33.718;73.040;2023-04-09T12:43:15;7.72;;;3.92;;
73331;SDS011;61560;33.718;73.040;2023-04-09T12:45:43;10.40;;;4.22;;
73331;SDS011;61560;33.718;73.040;2023-04-09T12:48:11;7.78;;;4.40;;
73331;SDS011;61560;33.718;73.040;2023-04-09T12:50:38;7.53;;;4.13;;
73331;SDS011;61560;33.718;73.040;2023-04-09T12:53:05;8.98;;;4.78;;
73331;SDS011;61560;33.718;73.040;2023-04-09T12:55:33;9.90;;;4.47;;
73331;SDS011;61560;33.718;73.040;2023-04-09T12:58:00;8.18;;;4.43;;
73331;SDS011;61560;33.718;73.040;2023-04-09T13:00:27;7.82;;;4.60;;
73331;SDS011;61560;33.718;73.040;2023-04-09T13:02:56;6.80;;;4.18;;
73331;SDS011;61560;33.718;73.040;2023-04-09T13:05:23;12.25;;;5.43;;
73331;SDS011;61560;33.718;73.040;2023-04-09T13:07:50;8.07;;;4.55;;
73331;SDS011;61560;33.718;73.040;2023-04-09T13:10:17;12.38;;;5.38;;
73331;SDS011;61560;33.718;73.040;2023-04-09T13:12:44;8.05;;;4.80;;
73331;SDS011;61560;33.718;73.040;2023-04-09T13:15:11;12.90;;;5.15;;
73331;SDS011;61560;33.718;73.040;2023-04-09T13:17:40;15.05;;;5.47;;
73331;SDS011;61560;33.718;73.040;2023-04-09T13:20:07;13.43;;;4.90;;
73331;SDS011;61560;33.718;73.040;2023-04-09T13:22:35;12.60;;;5.40;;
73331;SDS011;61560;33.718;73.040;2023-04-09T13:25:02;14.15;;;5.28;;
73331;SDS011;61560;33.718;73.040;2023-04-09T13:27:31;14.93;;;5.50;;
73331;SDS011;61560;33.718;73.040;2023-04-09T13:29:58;13.73;;;5.80;;
73331;SDS011;61560;33.718;73.040;2023-04-09T13:32:25;11.88;;;5.15;;
73331;SDS011;61560;33.718;73.040;2023-04-09T13:34:52;12.23;;;5.22;;
73331;SDS011;61560;33.718;73.040;2023-04-09T13:37:21;12.93;;;6.03;;
73331;SDS011;61560;33.718;73.040;2023-04-09T13:39:48;13.15;;;5.72;;
73331;SDS011;61560;33.718;73.040;2023-04-09T13:42:16;10.07;;;5.53;;
73331;SDS011;61560;33.718;73.040;2023-04-09T13:44:43;9.88;;;5.93;;
73331;SDS011;61560;33.718;73.040;2023-04-09T13:47:11;10.82;;;6.15;;
73331;SDS011;61560;33.718;73.040;2023-04-09T13:49:41;8.38;;;4.82;;
73331;SDS011;61560;33.718;73.040;2023-04-09T13:52:09;12.55;;;5.55;;
73331;SDS011;61560;33.718;73.040;2023-04-09T13:54:36;12.05;;;4.82;;
73331;SDS011;61560;33.718;73.040;2023-04-09T13:57:06;8.10;;;4.95;;
73331;SDS011;61560;33.718;73.040;2023-04-09T13:59:33;10.73;;;5.07;;
73331;SDS011;61560;33.718;73.040;2023-04-09T14:02:07;9.23;;;4.88;;
73331;SDS011;61560;33.718;73.040;2023-04-09T14:04:34;10.65;;;4.88;;
73331;SDS011;61560;33.718;73.040;2023-04-09T14:07:01;8.98;;;4.97;;
73331;SDS011;61560;33.718;73.040;2023-04-09T14:09:28;9.43;;;4.72;;
73331;SDS011;61560;33.718;73.040;2023-04-09T14:11:55;13.68;;;5.35;;
73331;SDS011;61560;33.718;73.040;2023-04-09T14:14:22;8.65;;;4.80;;
73331;SDS011;61560;33.718;73.040;2023-04-09T14:16:49;8.07;;;4.70;;
73331;SDS011;61560;33.718;73.040;2023-04-09T14:19:19;10.05;;;5.35;;
73331;SDS011;61560;33.718;73.040;2023-04-09T14:21:47;13.20;;;5.40;;
73331;SDS011;61560;33.718;73.040;2023-04-09T14:24:28;8.80;;;5.18;;
73331;SDS011;61560;33.718;73.040;2023-04-09T14:26:55;7.03;;;5.05;;
73331;SDS011;61560;33.718;73.040;2023-04-09T14:29:22;11.70;;;5.22;;
73331;SDS011;61560;33.718;73.040;2023-04-09T14:31:49;9.25;;;4.85;;
73331;SDS011;61560;33.718;73.040;2023-04-09T14:34:17;13.70;;;5.93;;
73331;SDS011;61560;33.718;73.040;2023-04-09T14:36:44;11.80;;;5.00;;
73331;SDS011;61560;33.718;73.040;2023-04-09T14:39:11;12.13;;;5.80;;
73331;SDS011;61560;33.718;73.040;2023-04-09T14:41:39;18.67;;;6.15;;
73331;SDS011;61560;33.718;73.040;2023-04-09T14:44:06;11.70;;;5.93;;
73331;SDS011;61560;33.718;73.040;2023-04-09T14:46:34;15.60;;;6.72;;
73331;SDS011;61560;33.718;73.040;2023-04-09T14:49:02;17.23;;;6.75;;
73331;SDS011;61560;33.718;73.040;2023-04-09T14:51:30;13.38;;;6.47;;
73331;SDS011;61560;33.718;73.040;2023-04-09T14:53:56;20.92;;;8.52;;
73331;SDS011;61560;33.718;73.040;2023-04-09T14:56:24;18.55;;;8.60;;
73331;SDS011;61560;33.718;73.040;2023-04-09T14:58:53;23.30;;;10.75;;
73331;SDS011;61560;33.718;73.040;2023-04-09T15:01:21;17.67;;;9.18;;
73331;SDS011;61560;33.718;73.040;2023-04-09T15:03:47;16.52;;;7.95;;
73331;SDS011;61560;33.718;73.040;2023-04-09T15:06:15;10.95;;;6.22;;
73331;SDS011;61560;33.718;73.040;2023-04-09T15:08:43;9.80;;;5.32;;
73331;SDS011;61560;33.718;73.040;2023-04-09T15:11:14;9.93;;;4.65;;